Time;durP1;ratioP1;P1;durP2;ratioP2;P2;SDS_P1;SDS_P2;PMS_P1;PMS_P2;Temp;Humidity;BMP_temperature;BMP_pressure;BME280_temperature;BME280_humidity;BME280_pressure;Samples;Min_cycle;Max_cycle;Signal;HPM_P1;HPM_P2
2024/03/25 00:00:04;;;;;;;;;;;5.50;99.90;;;;;;2053164;28;19922;-76
2024/03/25 00:01:12;;;;;;;;;;;5.50;99.90;;;;;;2056463;28;19935;-78
2024/03/25 00:02:13;;;;;;;;;;;5.50;99.90;;;;;;2070674;28;19913;-78
2024/03/25 00:03:13;;;;;;;;;;;5.50;99.90;;;;;;2070758;28;19913;-78
2024/03/25 00:04:13;;;;;;;;;;;5.50;99.90;;;;;;2070534;28;20775;-77
2024/03/25 00:05:15;;;;;;;;;;;5.50;99.90;;;;;;2070864;28;19925;-77
2024/03/25 00:06:16;;;;;;;;;;;5.50;99.90;;;;;;2069748;28;19966;-76
2024/03/25 00:07:16;;;;;;;;;;;5.50;99.90;;;;;;2072381;28;19917;-77
2024/03/25 00:08:17;;;;;;;;;;;5.50;99.90;;;;;;2070584;28;19917;-79
2024/03/25 00:09:17;;;;;;;;;;;5.50;99.90;;;;;;2061737;28;19950;-77
2024/03/25 00:10:20;;;;;;;;;;;5.60;99.90;;;;;;2058864;28;19914;-77
2024/03/25 00:11:20;;;;;;;;;;;5.60;99.90;;;;;;2071038;28;19922;-77
2024/03/25 00:12:21;;;;;;;;;;;5.60;99.90;;;;;;2069729;28;19973;-77
2024/03/25 00:13:21;;;;;;;;;;;5.60;99.90;;;;;;2069893;28;20291;-78
2024/03/25 00:14:22;;;;;;;;;;;5.60;99.90;;;;;;2060970;28;19920;-76
2024/03/25 00:15:26;;;;;;;;;;;5.60;99.90;;;;;;2060533;28;20281;-78
2024/03/25 00:16:26;;;;;;;;;;;5.70;99.90;;;;;;2062485;28;19933;-78
2024/03/25 00:17:27;;;;;;;;;;;5.60;99.90;;;;;;2060601;28;20016;-77
2024/03/25 00:18:27;;;;;;;;;;;5.60;99.90;;;;;;2069818;28;19921;-78
2024/03/25 00:19:28;;;;;;;;;;;5.60;99.90;;;;;;2063095;28;19914;-78
2024/03/25 00:20:28;;;;;;;;;;;5.60;99.90;;;;;;2051033;28;20483;-78
2024/03/25 00:21:29;;;;;;;;;;;5.60;99.90;;;;;;2059994;28;19922;-77
2024/03/25 00:22:29;;;;;;;;;;;5.60;99.90;;;;;;2061091;28;19933;-78
2024/03/25 00:23:30;;;;;;;;;;;5.50;99.90;;;;;;2060319;28;20403;-78
2024/03/25 00:24:31;;;;;;;;;;;5.50;99.90;;;;;;2068639;28;19917;-78
2024/03/25 00:25:31;;;;;;;;;;;5.40;99.90;;;;;;2062781;28;20240;-78
2024/03/25 00:26:32;;;;;;;;;;;5.40;99.90;;;;;;2059458;28;19925;-78
2024/03/25 00:27:33;;;;;;;;;;;5.40;99.90;;;;;;2072388;28;19914;-78
2024/03/25 00:28:33;;;;;;;;;;;5.30;99.90;;;;;;2075492;28;20327;-77
2024/03/25 00:29:34;;;;;;;;;;;5.30;99.90;;;;;;2068949;28;19928;-77
2024/03/25 00:30:34;;;;;;;;;;;5.30;99.90;;;;;;2067819;28;20418;-78
2024/03/25 00:31:34;;;;;;;;;;;5.30;99.90;;;;;;2076530;28;19912;-78
2024/03/25 00:32:35;;;;;;;;;;;5.20;99.90;;;;;;2067265;28;20028;-78
2024/03/25 00:33:36;;;;;;;;;;;5.20;99.90;;;;;;2069435;28;20459;-76
2024/03/25 00:34:36;;;;;;;;;;;5.20;99.90;;;;;;2061693;28;19924;-78
2024/03/25 00:35:38;;;;;;;;;;;5.20;99.90;;;;;;2064503;28;19918;-79
2024/03/25 00:36:38;;;;;;;;;;;5.20;99.90;;;;;;2071676;28;19913;-79
2024/03/25 00:37:38;;;;;;;;;;;5.10;99.90;;;;;;2072015;28;20206;-78
2024/03/25 00:38:39;;;;;;;;;;;5.10;99.90;;;;;;2070683;28;19913;-77
2024/03/25 00:39:40;;;;;;;;;;;5.10;99.90;;;;;;2075544;28;19913;-79
2024/03/25 00:40:41;;;;;;;;;;;5.10;99.90;;;;;;2075608;28;19917;-76
2024/03/25 00:41:41;;;;;;;;;;;5.10;99.90;;;;;;2075870;28;19944;-76
2024/03/25 00:42:42;;;;;;;;;;;5.10;99.90;;;;;;2075565;28;19936;-76
2024/03/25 00:43:43;;;;;;;;;;;5.10;99.90;;;;;;2066853;28;19914;-75
2024/03/25 00:44:43;;;;;;;;;;;5.10;99.90;;;;;;2067192;28;19918;-74
2024/03/25 00:45:44;;;;;;;;;;;5.10;99.90;;;;;;2075670;28;20453;-74
2024/03/25 00:46:45;;;;;;;;;;;5.10;99.90;;;;;;2075372;28;19913;-75
2024/03/25 00:47:46;;;;;;;;;;;5.10;99.90;;;;;;2075530;28;20257;-74
2024/03/25 00:48:46;;;;;;;;;;;5.10;99.90;;;;;;2075684;28;20048;-74
2024/03/25 00:49:47;;;;;;;;;;;5.10;99.90;;;;;;2076053;28;20322;-74
2024/03/25 00:50:47;;;;;;;;;;;5.10;99.90;;;;;;2066639;28;19913;-75
2024/03/25 00:51:48;;;;;;;;;;;5.10;99.90;;;;;;2063049;28;20439;-75
2024/03/25 00:52:49;;;;;;;;;;;5.10;99.90;;;;;;2067174;28;20364;-75
2024/03/25 00:53:49;;;;;;;;;;;5.10;99.90;;;;;;2075551;28;20411;-75
2024/03/25 00:54:50;;;;;;;;;;;5.10;99.90;;;;;;2075561;28;19921;-75
2024/03/25 00:55:51;;;;;;;;;;;5.20;99.90;;;;;;2075633;28;20075;-75
2024/03/25 00:56:53;;;;;;;;;;;5.20;99.90;;;;;;2066355;28;19968;-75
2024/03/25 00:57:53;;;;;;;;;;;5.20;99.90;;;;;;2066734;28;19918;-74
2024/03/25 00:58:55;;;;;;;;;;;5.20;99.90;;;;;;2075368;28;19913;-74
2024/03/25 00:59:55;;;;;;;;;;;5.20;99.90;;;;;;2079480;28;19913;-75
2024/03/25 01:00:56;;;;;;;;;;;5.20;99.90;;;;;;2066860;28;19968;-75
2024/03/25 01:01:57;;;;;;;;;;;5.20;99.90;;;;;;2058543;28;19964;-75
2024/03/25 01:02:57;;;;;;;;;;;5.20;99.90;;;;;;2066679;28;20201;-76
2024/03/25 01:03:58;;;;;;;;;;;5.20;99.90;;;;;;2075741;28;19921;-76
2024/03/25 01:04:59;;;;;;;;;;;5.20;99.90;;;;;;2058386;28;19925;-76
2024/03/25 01:06:00;;;;;;;;;;;5.20;99.90;;;;;;2060286;28;20285;-76
2024/03/25 01:07:00;;;;;;;;;;;5.20;99.90;;;;;;2074878;28;19927;-76
2024/03/25 01:08:01;;;;;;;;;;;5.20;99.90;;;;;;2075546;28;19924;-75
2024/03/25 01:09:01;;;;;;;;;;;5.20;99.90;;;;;;2066526;28;19917;-76
2024/03/25 01:10:02;;;;;;;;;;;5.30;99.90;;;;;;2069165;28;19917;-76
2024/03/25 01:11:02;;;;;;;;;;;5.30;99.90;;;;;;2078646;28;20466;-77
2024/03/25 01:12:03;;;;;;;;;;;5.20;99.90;;;;;;2075048;28;20346;-76
2024/03/25 01:13:04;;;;;;;;;;;5.20;99.90;;;;;;2067920;28;19920;-76
2024/03/25 01:14:04;;;;;;;;;;;5.30;99.90;;;;;;2058259;28;19956;-77
2024/03/25 01:15:05;;;;;;;;;;;5.30;99.90;;;;;;2066553;28;19993;-75
2024/03/25 01:16:06;;;;;;;;;;;5.20;99.90;;;;;;2066437;28;19925;-76
2024/03/25 01:17:07;;;;;;;;;;;5.30;99.90;;;;;;2058363;28;20024;-75
2024/03/25 01:18:08;;;;;;;;;;;5.20;99.90;;;;;;2066626;28;20383;-76
2024/03/25 01:19:08;;;;;;;;;;;5.30;99.90;;;;;;2058523;28;20004;-76
2024/03/25 01:20:10;;;;;;;;;;;5.30;99.90;;;;;;2066299;28;19953;-75
2024/03/25 01:21:10;;;;;;;;;;;5.30;99.90;;;;;;2058334;28;19923;-75
2024/03/25 01:22:11;;;;;;;;;;;5.40;99.90;;;;;;2066722;28;20285;-75
2024/03/25 01:23:11;;;;;;;;;;;5.40;99.90;;;;;;2075914;28;19917;-75
2024/03/25 01:24:11;;;;;;;;;;;5.40;99.90;;;;;;2066526;28;20024;-76
2024/03/25 01:25:12;;;;;;;;;;;5.40;99.90;;;;;;2068879;28;20023;-76
2024/03/25 01:26:12;;;;;;;;;;;5.40;99.90;;;;;;2066358;28;19986;-76
2024/03/25 01:27:13;;;;;;;;;;;5.40;99.90;;;;;;2076041;28;19956;-75
2024/03/25 01:28:14;;;;;;;;;;;5.40;99.90;;;;;;2075573;28;19971;-75
2024/03/25 01:29:14;;;;;;;;;;;5.40;99.90;;;;;;2066367;28;19914;-75
2024/03/25 01:30:15;;;;;;;;;;;5.40;99.90;;;;;;2057994;28;19914;-74
2024/03/25 01:31:15;;;;;;;;;;;5.40;99.90;;;;;;2064354;28;20308;-75
2024/03/25 01:32:16;;;;;;;;;;;5.40;99.90;;;;;;2066808;28;19917;-76
2024/03/25 01:33:16;;;;;;;;;;;5.40;99.90;;;;;;2058565;28;19918;-75
2024/03/25 01:34:17;;;;;;;;;;;5.40;99.90;;;;;;2062262;28;19972;-75
2024/03/25 01:35:17;;;;;;;;;;;5.40;99.90;;;;;;2066378;28;19913;-75
2024/03/25 01:36:18;;;;;;;;;;;5.40;99.90;;;;;;2068233;28;19922;-75
2024/03/25 01:37:18;;;;;;;;;;;5.40;99.90;;;;;;2075549;28;19976;-75
2024/03/25 01:38:19;;;;;;;;;;;5.40;99.90;;;;;;2066399;28;19918;-75
2024/03/25 01:39:19;;;;;;;;;;;5.40;99.90;;;;;;2066443;28;19969;-75
2024/03/25 01:40:20;;;;;;;;;;;5.40;99.90;;;;;;2075011;28;19913;-75
2024/03/25 01:41:24;;;;;;;;;;;5.30;99.90;;;;;;2075414;28;20036;-75
2024/03/25 01:42:25;;;;;;;;;;;5.40;99.90;;;;;;2075529;28;19932;-75
2024/03/25 01:43:25;;;;;;;;;;;5.40;99.90;;;;;;2066505;28;19992;-75
2024/03/25 01:44:25;;;;;;;;;;;5.30;99.90;;;;;;2066241;28;20372;-76
2024/03/25 01:45:28;;;;;;;;;;;5.40;99.90;;;;;;2075111;28;20176;-75
2024/03/25 01:46:29;;;;;;;;;;;5.30;99.90;;;;;;2067737;28;20416;-76
2024/03/25 01:47:32;;;;;;;;;;;5.30;99.90;;;;;;2059557;28;19924;-75
2024/03/25 01:48:33;;;;;;;;;;;5.30;99.90;;;;;;2068819;28;19988;-75
2024/03/25 01:49:33;;;;;;;;;;;5.30;99.90;;;;;;2068366;28;19945;-75
2024/03/25 01:50:35;;;;;;;;;;;5.30;99.90;;;;;;2067977;28;19921;-75
2024/03/25 01:51:36;;;;;;;;;;;5.30;99.90;;;;;;2056454;28;20421;-75
2024/03/25 01:52:36;;;;;;;;;;;5.20;99.90;;;;;;2060136;28;19918;-75
2024/03/25 01:53:37;;;;;;;;;;;5.30;99.90;;;;;;2077048;28;19959;-75
2024/03/25 01:54:38;;;;;;;;;;;5.20;99.90;;;;;;2077027;28;20331;-74
2024/03/25 01:55:38;;;;;;;;;;;5.20;99.90;;;;;;2078363;28;19952;-75
2024/03/25 01:56:43;;;;;;;;;;;5.20;99.90;;;;;;2077026;28;19917;-75
2024/03/25 01:57:44;;;;;;;;;;;5.20;99.90;;;;;;2076744;28;19917;-75
2024/03/25 01:58:45;;;;;;;;;;;5.20;99.90;;;;;;2076990;28;19917;-75
2024/03/25 01:59:46;;;;;;;;;;;5.20;99.90;;;;;;2076668;28;20295;-75
2024/03/25 02:00:47;;;;;;;;;;;5.20;99.90;;;;;;2072325;28;20319;-75
2024/03/25 02:01:48;;;;;;;;;;;5.10;99.90;;;;;;2068067;28;19972;-76
2024/03/25 02:02:49;;;;;;;;;;;5.10;99.90;;;;;;2068097;28;20396;-75
2024/03/25 02:03:49;;;;;;;;;;;5.10;99.90;;;;;;2076629;28;19952;-76
2024/03/25 02:04:51;;;;;;;;;;;5.10;99.90;;;;;;2076685;28;20376;-75
2024/03/25 02:05:54;;;;;;;;;;;5.10;99.90;;;;;;2077368;28;19921;-75
2024/03/25 02:06:58;;;;;;;;;;;5.10;99.90;;;;;;2068394;28;20370;-75
2024/03/25 02:07:59;;;;;;;;;;;5.00;99.90;;;;;;2068560;28;19913;-75
2024/03/25 02:09:01;;;;;;;;;;;5.10;99.90;;;;;;2067848;28;20379;-75
2024/03/25 02:10:03;;;;;;;;;;;5.00;99.90;;;;;;2059940;28;20040;-75
2024/03/25 02:11:04;;;;;;;;;;;5.10;99.90;;;;;;2068267;28;19983;-75
2024/03/25 02:12:04;;;;;;;;;;;5.10;99.90;;;;;;2076661;28;20462;-75
2024/03/25 02:13:05;;;;;;;;;;;5.10;99.90;;;;;;2076865;28;19924;-75
2024/03/25 02:14:06;;;;;;;;;;;5.10;99.90;;;;;;2068793;28;20592;-76
2024/03/25 02:15:07;;;;;;;;;;;5.10;99.90;;;;;;2067754;28;19967;-76
2024/03/25 02:16:07;;;;;;;;;;;5.10;99.90;;;;;;2059776;28;20399;-76
2024/03/25 02:17:08;;;;;;;;;;;5.10;99.90;;;;;;2061572;28;20168;-75
2024/03/25 02:18:09;;;;;;;;;;;5.10;99.90;;;;;;2079080;28;20160;-76
2024/03/25 02:19:10;;;;;;;;;;;5.10;99.90;;;;;;2077411;28;20320;-76
2024/03/25 02:20:11;;;;;;;;;;;5.10;99.90;;;;;;2067822;28;20517;-76
2024/03/25 02:21:12;;;;;;;;;;;5.10;99.90;;;;;;2059859;28;19918;-75
2024/03/25 02:22:12;;;;;;;;;;;5.20;99.90;;;;;;2067950;28;19924;-75
2024/03/25 02:23:13;;;;;;;;;;;5.20;99.90;;;;;;2068080;28;19939;-76
2024/03/25 02:24:15;;;;;;;;;;;5.20;99.90;;;;;;2067889;28;19921;-76
2024/03/25 02:25:16;;;;;;;;;;;5.20;99.90;;;;;;2075799;28;19929;-76
2024/03/25 02:26:17;;;;;;;;;;;5.20;99.90;;;;;;2075646;28;20689;-76
2024/03/25 02:27:17;;;;;;;;;;;5.20;99.90;;;;;;2076348;28;19917;-76
2024/03/25 02:28:18;;;;;;;;;;;5.30;99.90;;;;;;2076524;28;20103;-76
2024/03/25 02:29:18;;;;;;;;;;;5.30;99.90;;;;;;2076787;28;20381;-76
2024/03/25 02:30:19;;;;;;;;;;;5.30;99.90;;;;;;2076111;28;19913;-76
2024/03/25 02:31:19;;;;;;;;;;;5.30;99.90;;;;;;2064677;28;19909;-76
2024/03/25 02:32:20;;;;;;;;;;;5.30;99.90;;;;;;2069368;28;19983;-76
2024/03/25 02:33:20;;;;;;;;;;;5.30;99.90;;;;;;2076676;28;20336;-76
2024/03/25 02:34:21;;;;;;;;;;;5.30;99.90;;;;;;2068042;28;19921;-77
2024/03/25 02:35:22;;;;;;;;;;;5.30;99.90;;;;;;2067231;28;19953;-77
2024/03/25 02:36:22;;;;;;;;;;;5.30;99.90;;;;;;2059445;28;19926;-76
2024/03/25 02:37:24;;;;;;;;;;;5.30;99.90;;;;;;2067636;28;19921;-75
2024/03/25 02:38:24;;;;;;;;;;;5.30;99.90;;;;;;2078651;28;20004;-75
2024/03/25 02:39:25;;;;;;;;;;;5.30;99.90;;;;;;2076645;28;19921;-75
2024/03/25 02:40:26;;;;;;;;;;;5.30;99.90;;;;;;2076389;28;19921;-75
2024/03/25 02:41:30;;;;;;;;;;;5.30;99.90;;;;;;2076581;28;19914;-76
2024/03/25 02:42:30;;;;;;;;;;;5.30;99.90;;;;;;2067849;28;19938;-76
2024/03/25 02:43:31;;;;;;;;;;;5.30;99.90;;;;;;2063473;28;19949;-75
2024/03/25 02:44:32;;;;;;;;;;;5.30;99.90;;;;;;2067795;28;19940;-76
2024/03/25 02:45:32;;;;;;;;;;;5.30;99.90;;;;;;2067858;28;19918;-77
2024/03/25 02:46:33;;;;;;;;;;;5.30;99.90;;;;;;2076641;28;19975;-75
2024/03/25 02:47:34;;;;;;;;;;;5.30;99.90;;;;;;2076465;28;20031;-76
2024/03/25 02:48:35;;;;;;;;;;;5.30;99.90;;;;;;2072617;28;19968;-74
2024/03/25 02:49:35;;;;;;;;;;;5.30;99.90;;;;;;2067957;28;19921;-75
2024/03/25 02:50:36;;;;;;;;;;;5.30;99.90;;;;;;2071350;28;19920;-75
2024/03/25 02:51:36;;;;;;;;;;;5.30;99.90;;;;;;2076627;28;19989;-75
2024/03/25 02:52:37;;;;;;;;;;;5.30;99.90;;;;;;2067725;28;20667;-75
2024/03/25 02:53:37;;;;;;;;;;;5.30;99.90;;;;;;2067791;28;19952;-75
2024/03/25 02:54:38;;;;;;;;;;;5.30;99.90;;;;;;2076681;28;20287;-75
2024/03/25 02:55:38;;;;;;;;;;;5.30;99.90;;;;;;2067705;28;20186;-75
2024/03/25 02:56:39;;;;;;;;;;;5.30;99.90;;;;;;2067494;28;20020;-75
2024/03/25 02:57:40;;;;;;;;;;;5.30;99.90;;;;;;2060430;28;20304;-74
2024/03/25 02:58:40;;;;;;;;;;;5.40;99.90;;;;;;2059276;28;19945;-73
2024/03/25 02:59:41;;;;;;;;;;;5.30;99.90;;;;;;2076746;28;20056;-74
2024/03/25 03:00:41;;;;;;;;;;;5.40;99.90;;;;;;2067396;28;20226;-75
2024/03/25 03:01:42;;;;;;;;;;;5.40;99.90;;;;;;2064221;28;19917;-74
2024/03/25 03:02:42;;;;;;;;;;;5.40;99.90;;;;;;2074749;28;20224;-74
2024/03/25 03:03:43;;;;;;;;;;;5.40;99.90;;;;;;2076837;28;20004;-76
2024/03/25 03:04:43;;;;;;;;;;;5.40;99.90;;;;;;2068074;28;20332;-75
2024/03/25 03:05:44;;;;;;;;;;;5.50;99.90;;;;;;2070929;28;19949;-76
2024/03/25 03:06:44;;;;;;;;;;;5.50;99.90;;;;;;2067662;28;19921;-75
2024/03/25 03:07:45;;;;;;;;;;;5.50;99.90;;;;;;2067440;28;20367;-75
2024/03/25 03:08:45;;;;;;;;;;;5.50;99.90;;;;;;2076695;28;19920;-75
2024/03/25 03:09:46;;;;;;;;;;;5.50;99.90;;;;;;2076587;28;19913;-75
2024/03/25 03:10:46;;;;;;;;;;;5.50;99.90;;;;;;2068438;28;19913;-74
2024/03/25 03:11:47;;;;;;;;;;;5.50;99.90;;;;;;2062587;28;20677;-75
2024/03/25 03:12:47;;;;;;;;;;;5.50;99.90;;;;;;2067856;28;19995;-75
2024/03/25 03:13:48;;;;;;;;;;;5.50;99.90;;;;;;2070855;28;19921;-74
2024/03/25 03:14:48;;;;;;;;;;;5.50;99.90;;;;;;2067641;28;19918;-75
2024/03/25 03:15:48;;;;;;;;;;;5.50;99.90;;;;;;2076226;28;20490;-75
2024/03/25 03:16:49;;;;;;;;;;;5.50;99.90;;;;;;2067799;28;19917;-74
2024/03/25 03:17:50;;;;;;;;;;;5.50;99.90;;;;;;2063804;28;20349;-75
2024/03/25 03:18:50;;;;;;;;;;;5.50;99.90;;;;;;2077110;28;19936;-75
2024/03/25 03:19:50;;;;;;;;;;;5.60;99.90;;;;;;2076980;28;19919;-74
2024/03/25 03:20:51;;;;;;;;;;;5.60;99.90;;;;;;2067750;28;19913;-74
2024/03/25 03:21:51;;;;;;;;;;;5.60;99.90;;;;;;2068740;28;19960;-74
2024/03/25 03:22:52;;;;;;;;;;;5.50;99.90;;;;;;2076907;28;20018;-75
2024/03/25 03:23:52;;;;;;;;;;;5.60;99.90;;;;;;2078261;28;20148;-76
2024/03/25 03:24:53;;;;;;;;;;;5.60;99.90;;;;;;2079629;28;19917;-77
2024/03/25 03:25:53;;;;;;;;;;;5.60;99.90;;;;;;2076180;28;19917;-75
2024/03/25 03:26:54;;;;;;;;;;;5.60;99.90;;;;;;2076979;28;19921;-76
2024/03/25 03:27:55;;;;;;;;;;;5.60;99.90;;;;;;2067391;28;19917;-76
2024/03/25 03:28:56;;;;;;;;;;;5.60;99.90;;;;;;2067588;28;19980;-76
2024/03/25 03:29:57;;;;;;;;;;;5.60;99.90;;;;;;2076756;28;20220;-76
2024/03/25 03:30:57;;;;;;;;;;;5.60;99.90;;;;;;2074605;28;19917;-74
2024/03/25 03:31:58;;;;;;;;;;;5.60;99.90;;;;;;2077559;28;19980;-76
2024/03/25 03:32:58;;;;;;;;;;;5.60;99.90;;;;;;2072256;28;20268;-76
2024/03/25 03:33:59;;;;;;;;;;;5.70;99.90;;;;;;2076726;28;20446;-76
2024/03/25 03:34:59;;;;;;;;;;;5.70;99.90;;;;;;2062654;28;19918;-76
2024/03/25 03:36:00;;;;;;;;;;;5.70;99.90;;;;;;2047391;28;20646;-76
2024/03/25 03:37:00;;;;;;;;;;;5.70;99.90;;;;;;2053273;28;19926;-77
2024/03/25 03:38:01;;;;;;;;;;;5.70;99.90;;;;;;2064991;28;19917;-76
2024/03/25 03:39:03;;;;;;;;;;;5.70;99.90;;;;;;2076216;28;19913;-76
2024/03/25 03:40:06;;;;;;;;;;;5.70;99.90;;;;;;2076179;28;19917;-75
2024/03/25 03:41:06;;;;;;;;;;;5.70;99.90;;;;;;2076411;28;19972;-76
2024/03/25 03:42:07;;;;;;;;;;;5.70;99.90;;;;;;2059575;28;20007;-75
2024/03/25 03:43:07;;;;;;;;;;;5.70;99.90;;;;;;2059633;28;20021;-76
2024/03/25 03:44:09;;;;;;;;;;;5.70;99.90;;;;;;2071664;28;19917;-75
2024/03/25 03:45:10;;;;;;;;;;;5.70;99.90;;;;;;2059579;28;20077;-75
2024/03/25 03:46:10;;;;;;;;;;;5.70;99.90;;;;;;2060045;28;20004;-76
2024/03/25 03:47:11;;;;;;;;;;;5.70;99.90;;;;;;2059745;28;20399;-75
2024/03/25 03:48:11;;;;;;;;;;;5.70;99.90;;;;;;2067523;28;20367;-76
2024/03/25 03:49:12;;;;;;;;;;;5.60;99.90;;;;;;2070522;28;19936;-75
2024/03/25 03:50:12;;;;;;;;;;;5.70;99.90;;;;;;2068387;28;20228;-75
2024/03/25 03:51:13;;;;;;;;;;;5.60;99.90;;;;;;2067671;28;19945;-75
2024/03/25 03:52:13;;;;;;;;;;;5.70;99.90;;;;;;2067514;28;19979;-76
2024/03/25 03:53:14;;;;;;;;;;;5.60;99.90;;;;;;2067257;28;19917;-75
2024/03/25 03:54:14;;;;;;;;;;;5.70;99.90;;;;;;2076147;28;19928;-76
2024/03/25 03:55:15;;;;;;;;;;;5.70;99.90;;;;;;2076108;28;19968;-75
2024/03/25 03:56:16;;;;;;;;;;;5.60;99.90;;;;;;2076366;28;19925;-76
2024/03/25 03:57:16;;;;;;;;;;;5.70;99.90;;;;;;2067285;28;19941;-75
2024/03/25 03:58:17;;;;;;;;;;;5.60;99.90;;;;;;2067279;28;20366;-74
2024/03/25 03:59:17;;;;;;;;;;;5.60;99.90;;;;;;2067345;28;20465;-75
2024/03/25 04:00:18;;;;;;;;;;;5.60;99.90;;;;;;2075940;28;19921;-75
2024/03/25 04:01:18;;;;;;;;;;;5.60;99.90;;;;;;2080208;28;20307;-76
2024/03/25 04:02:19;;;;;;;;;;;5.60;99.90;;;;;;2080259;28;19931;-75
2024/03/25 04:03:20;;;;;;;;;;;5.60;99.90;;;;;;2057904;28;19977;-75
2024/03/25 04:04:20;;;;;;;;;;;5.60;99.90;;;;;;2058977;28;20001;-75
2024/03/25 04:05:20;;;;;;;;;;;5.70;99.90;;;;;;2076498;28;19929;-74
2024/03/25 04:06:22;;;;;;;;;;;5.70;99.90;;;;;;2076173;28;19991;-75
2024/03/25 04:07:26;;;;;;;;;;;5.70;99.90;;;;;;2071094;28;19917;-75
2024/03/25 04:08:27;;;;;;;;;;;5.70;99.90;;;;;;2075892;28;19913;-75
2024/03/25 04:09:29;;;;;;;;;;;5.70;99.90;;;;;;2067437;28;19945;-75
2024/03/25 04:10:29;;;;;;;;;;;5.70;99.90;;;;;;2067367;28;20103;-75
2024/03/25 04:11:30;;;;;;;;;;;5.70;99.90;;;;;;2075846;28;19917;-76
2024/03/25 04:12:30;;;;;;;;;;;5.70;99.90;;;;;;2067432;28;19918;-76
2024/03/25 04:13:30;;;;;;;;;;;5.70;99.90;;;;;;2067231;28;19913;-74
2024/03/25 04:14:31;;;;;;;;;;;5.70;99.90;;;;;;2076206;28;20398;-75
2024/03/25 04:15:35;;;;;;;;;;;5.70;99.90;;;;;;2066787;28;20329;-74
2024/03/25 04:16:35;;;;;;;;;;;5.70;99.90;;;;;;2067320;28;20012;-75
2024/03/25 04:17:36;;;;;;;;;;;5.70;99.90;;;;;;2067589;28;19924;-75
2024/03/25 04:18:36;;;;;;;;;;;5.70;99.90;;;;;;2067296;28;19921;-76
2024/03/25 04:19:37;;;;;;;;;;;5.70;99.90;;;;;;2075881;28;19913;-76
2024/03/25 04:20:38;;;;;;;;;;;5.80;99.90;;;;;;2067254;28;20000;-75
2024/03/25 04:21:39;;;;;;;;;;;5.70;99.90;;;;;;2067407;28;20295;-75
2024/03/25 04:22:43;;;;;;;;;;;5.80;99.90;;;;;;2076327;28;19925;-74
2024/03/25 04:23:44;;;;;;;;;;;5.80;99.90;;;;;;2076405;28;19917;-74
2024/03/25 04:24:45;;;;;;;;;;;5.80;99.90;;;;;;2068199;28;19917;-76
2024/03/25 04:25:45;;;;;;;;;;;5.80;99.90;;;;;;2058606;28;20190;-75
2024/03/25 04:26:46;;;;;;;;;;;5.80;99.90;;;;;;2067205;28;20388;-76
2024/03/25 04:27:47;;;;;;;;;;;5.80;99.90;;;;;;2066902;28;19914;-76
2024/03/25 04:28:47;;;;;;;;;;;5.80;99.90;;;;;;2067132;28;20339;-76
2024/03/25 04:29:48;;;;;;;;;;;5.80;99.90;;;;;;2075173;28;19922;-76
2024/03/25 04:30:52;;;;;;;;;;;5.80;99.90;;;;;;2074964;28;19923;-76
2024/03/25 04:31:52;;;;;;;;;;;5.80;99.90;;;;;;2073311;28;20387;-75
2024/03/25 04:32:53;;;;;;;;;;;5.80;99.90;;;;;;2075937;28;19917;-76
2024/03/25 04:33:53;;;;;;;;;;;5.80;99.90;;;;;;2076001;28;19939;-77
2024/03/25 04:34:54;;;;;;;;;;;5.80;99.90;;;;;;2076110;28;19917;-75
2024/03/25 04:35:54;;;;;;;;;;;5.80;99.90;;;;;;2075686;28;19927;-76
2024/03/25 04:36:57;;;;;;;;;;;5.80;99.90;;;;;;2075605;28;20493;-76
2024/03/25 04:37:57;;;;;;;;;;;5.80;99.90;;;;;;2075790;28;19925;-76
2024/03/25 04:38:58;;;;;;;;;;;5.80;99.90;;;;;;2067182;28;19917;-76
2024/03/25 04:39:58;;;;;;;;;;;5.80;99.90;;;;;;2067205;28;19936;-76
2024/03/25 04:40:59;;;;;;;;;;;5.80;99.90;;;;;;2070559;28;19951;-76
2024/03/25 04:42:00;;;;;;;;;;;5.80;99.90;;;;;;2071057;28;19931;-73
2024/03/25 04:43:00;;;;;;;;;;;5.80;99.90;;;;;;2066795;28;19918;-75
2024/03/25 04:44:01;;;;;;;;;;;5.80;99.90;;;;;;2062008;28;20292;-75
2024/03/25 04:45:01;;;;;;;;;;;5.80;99.90;;;;;;2067832;28;19972;-73
2024/03/25 04:46:02;;;;;;;;;;;5.80;99.90;;;;;;2077515;28;20282;-75
2024/03/25 04:47:02;;;;;;;;;;;5.80;99.90;;;;;;2066813;28;20005;-75
2024/03/25 04:48:03;;;;;;;;;;;5.80;99.90;;;;;;2062700;28;20252;-76
2024/03/25 04:49:03;;;;;;;;;;;5.80;99.90;;;;;;2069005;28;19940;-82
2024/03/25 04:50:05;;;;;;;;;;;5.80;99.90;;;;;;2075640;28;19921;-74
2024/03/25 04:51:06;;;;;;;;;;;5.80;99.90;;;;;;2071612;28;19917;-73
2024/03/25 04:52:06;;;;;;;;;;;5.70;99.90;;;;;;2066551;28;20415;-75
2024/03/25 04:53:07;;;;;;;;;;;5.80;99.90;;;;;;2067076;28;19948;-74
2024/03/25 04:54:07;;;;;;;;;;;5.80;99.90;;;;;;2066547;28;19913;-75
2024/03/25 04:55:08;;;;;;;;;;;5.70;99.90;;;;;;2066672;28;20465;-74
2024/03/25 04:56:08;;;;;;;;;;;5.80;99.90;;;;;;2067046;28;20021;-75
2024/03/25 04:57:09;;;;;;;;;;;5.70;99.90;;;;;;2078339;28;19917;-75
2024/03/25 04:58:09;;;;;;;;;;;5.70;99.90;;;;;;2075485;28;20375;-75
2024/03/25 04:59:11;;;;;;;;;;;5.70;99.90;;;;;;2075485;28;19920;-75
2024/03/25 05:00:12;;;;;;;;;;;5.70;99.90;;;;;;2067541;28;20406;-74
2024/03/25 05:01:13;;;;;;;;;;;5.70;99.90;;;;;;2066873;28;19916;-75
2024/03/25 05:02:14;;;;;;;;;;;5.70;99.90;;;;;;2074443;28;19913;-74
2024/03/25 05:03:14;;;;;;;;;;;5.70;99.90;;;;;;2079773;28;20429;-75
2024/03/25 05:04:15;;;;;;;;;;;5.70;99.90;;;;;;2069630;28;20162;-71
2024/03/25 05:05:15;;;;;;;;;;;5.70;99.90;;;;;;2067393;28;20395;-75
2024/03/25 05:06:16;;;;;;;;;;;5.70;99.90;;;;;;2066754;28;20375;-76
2024/03/25 05:07:16;;;;;;;;;;;5.70;99.90;;;;;;2058598;28;19914;-77
2024/03/25 05:08:17;;;;;;;;;;;5.70;99.90;;;;;;2059944;28;20361;-76
2024/03/25 05:09:17;;;;;;;;;;;5.70;99.90;;;;;;2067064;28;20344;-76
2024/03/25 05:10:18;;;;;;;;;;;5.70;99.90;;;;;;2067732;28;19928;-77
2024/03/25 05:11:18;;;;;;;;;;;5.70;99.90;;;;;;2064775;28;20016;-77
2024/03/25 05:12:19;;;;;;;;;;;5.70;99.90;;;;;;2078842;28;20583;-76
2024/03/25 05:13:19;;;;;;;;;;;5.70;99.90;;;;;;2071846;28;19952;-75
2024/03/25 05:14:20;;;;;;;;;;;5.70;99.90;;;;;;2075951;28;19921;-76
2024/03/25 05:15:20;;;;;;;;;;;5.70;99.90;;;;;;2075801;28;19917;-75
2024/03/25 05:16:21;;;;;;;;;;;5.70;99.90;;;;;;2075777;28;19933;-75
2024/03/25 05:17:21;;;;;;;;;;;5.70;99.90;;;;;;2066960;28;19920;-76
2024/03/25 05:18:22;;;;;;;;;;;5.70;99.90;;;;;;2067254;28;19914;-75
2024/03/25 05:19:22;;;;;;;;;;;5.70;99.90;;;;;;2079804;28;20540;-76
2024/03/25 05:20:22;;;;;;;;;;;5.70;99.90;;;;;;2066897;28;19914;-75
2024/03/25 05:21:23;;;;;;;;;;;5.70;99.90;;;;;;2067016;28;19920;-75
2024/03/25 05:22:23;;;;;;;;;;;5.70;99.90;;;;;;2075747;28;20370;-75
2024/03/25 05:23:24;;;;;;;;;;;5.70;99.90;;;;;;2075887;28;20407;-75
2024/03/25 05:24:24;;;;;;;;;;;5.70;99.90;;;;;;2067252;28;19921;-75
2024/03/25 05:25:28;;;;;;;;;;;5.70;99.90;;;;;;2058651;28;19949;-75
2024/03/25 05:26:29;;;;;;;;;;;5.70;99.90;;;;;;2066766;28;20605;-76
2024/03/25 05:27:29;;;;;;;;;;;5.70;99.90;;;;;;2067060;28;20546;-77
2024/03/25 05:28:30;;;;;;;;;;;5.70;99.90;;;;;;2067105;28;19936;-76
2024/03/25 05:29:31;;;;;;;;;;;5.70;99.90;;;;;;2069988;28;20008;-76
2024/03/25 05:30:31;;;;;;;;;;;5.70;99.90;;;;;;2059713;28;19914;-75
2024/03/25 05:31:32;;;;;;;;;;;5.70;99.90;;;;;;2063227;28;19913;-75
2024/03/25 05:32:32;;;;;;;;;;;5.60;99.90;;;;;;2067287;28;19968;-75
2024/03/25 05:33:33;;;;;;;;;;;5.60;99.90;;;;;;2066974;28;19921;-76
2024/03/25 05:34:33;;;;;;;;;;;5.60;99.90;;;;;;2076017;28;19921;-77
2024/03/25 05:35:36;;;;;;;;;;;5.60;99.90;;;;;;2068061;28;20403;-77
2024/03/25 05:36:36;;;;;;;;;;;5.60;99.90;;;;;;2067860;28;19913;-76
2024/03/25 05:37:37;;;;;;;;;;;5.60;99.90;;;;;;2067533;28;19920;-77
2024/03/25 05:38:38;;;;;;;;;;;5.60;99.90;;;;;;2071659;28;20429;-75
2024/03/25 05:39:38;;;;;;;;;;;5.50;99.90;;;;;;2067461;28;19914;-77
2024/03/25 05:40:39;;;;;;;;;;;5.50;99.90;;;;;;2070137;28;20028;-73
2024/03/25 05:41:39;;;;;;;;;;;5.50;99.90;;;;;;2067437;28;20367;-78
2024/03/25 05:42:39;;;;;;;;;;;5.50;99.90;;;;;;2056730;28;19925;-74
2024/03/25 05:43:40;;;;;;;;;;;5.60;99.90;;;;;;2067833;28;19918;-74
2024/03/25 05:44:40;;;;;;;;;;;5.60;99.90;;;;;;2078914;28;20379;-76
2024/03/25 05:45:49;;;;;;;;;;;5.60;99.90;;;;;;2071080;28;19953;-74
2024/03/25 05:46:50;;;;;;;;;;;5.60;99.90;;;;;;2061329;28;19929;-76
2024/03/25 05:47:50;;;;;;;;;;;5.60;99.90;;;;;;2051777;28;20561;-76
2024/03/25 05:48:51;;;;;;;;;;;5.60;99.90;;;;;;2046911;28;19925;-75
2024/03/25 05:49:52;;;;;;;;;;;5.60;99.90;;;;;;2059679;28;19914;-74
2024/03/25 05:51:05;;;;;;;;;;;5.60;99.90;;;;;;2067162;28;20298;-75
2024/03/25 05:52:05;;;;;;;;;;;5.60;99.90;;;;;;2067365;28;19922;-74
2024/03/25 05:53:06;;;;;;;;;;;5.60;99.90;;;;;;2058354;28;19968;-74
2024/03/25 05:54:06;;;;;;;;;;;5.70;99.90;;;;;;2059156;28;19922;-75
2024/03/25 05:55:07;;;;;;;;;;;5.60;99.90;;;;;;2066977;28;19920;-74
2024/03/25 05:56:07;;;;;;;;;;;5.70;99.90;;;;;;2074780;28;19925;-75
2024/03/25 05:57:08;;;;;;;;;;;5.70;99.90;;;;;;2066784;28;19914;-74
2024/03/25 05:58:08;;;;;;;;;;;5.70;99.90;;;;;;2067052;28;20419;-75
2024/03/25 05:59:09;;;;;;;;;;;5.70;99.90;;;;;;2066646;28;19953;-74